Mayfield Heights, OH (44124)

4:09 AM EDT on March 27, 2015 (GMT -0400)
Buckeye Woodhill | | Change Station
CLOSE
Current Station
Personal Weather Station
Location: Cleveland, OH
Elevation: 776 ft
Nearby Weather Stations

Elev 776 ft 41.48 °N, 81.62 °W | Updated 54 seconds ago

Light Snow
Light Snow
33.1 °F
Feels Like 33 °F
N
0.0
Wind Variable Wind from West
Gusts 4.0 mph

Today
High -- | Low -- °F
--% Chance of Precip.
Yesterday
High -- | Low -- °F
Precip. -- in
7:18 AM 7:46 PM
Waxing Crescent, 50% visible
Pressure 29.93 in
Visibility 10.0 miles
Clouds Mostly Cloudy 3600 ft
Overcast 6000 ft
Windchill 33 °F
Dew Point 28 °F
Humidity 83%
Rainfall 0.00 in
Snow Depth Not available.
UV 0 out of 12
Pollen .70 out of 12
Air Quality Not available.
Flu Activity Not available.
METAR KBKL 270753Z 30010KT 10SM -SN BKN036 OVC060 01/M02 A2991 RMK AO2 SNB53 SLP134 P0000 T00061017

More Conditions Fewer Conditions

Pressure 29.93 in
Visibility 10.0 miles
Clouds Mostly Cloudy 3600 ft
Overcast 6000 ft
Windchill 33 °F
Dew Point 28 °F
Humidity 83%
Rainfall 0.00 in
Snow Depth Not available.
UV 0 out of 12
Pollen .70 out of 12
Air Quality Not available.
Flu Activity Not available.
METAR KBKL 270753Z 30010KT 10SM -SN BKN036 OVC060 01/M02 A2991 RMK AO2 SNB53 SLP134 P0000 T00061017

More Conditions Fewer Conditions

10-Day Weather Forecast

Almanac

Astronomy

Mar. 27, 2015 Rise Set
Actual Time
Civil Twilight
Nautical Twilight
Astronomical Twilight
Moon
Length of Visible Light
Length of Day
Tomorrow will be .
, % of the Moon is Illuminated

Today's Extremes

State Highs State Lows

Community

WunderPhotos

Upload Photos

1,808,704 photos uploaded!

WunderBlogs® & News

Nearby

Air Quality

  Air Quality AQ Index Pollutant
Not available.

Snow Depth

Station Depth Elevation

Earthquake Activity

City Distance Mag. Time & Date
Minimum magnitude displayed is 2.5.

Coastal Water Temperatures

Place Temperature

Stations

Nearby Weather Stations

Station Location Temp. Windchill Dew Point Humidity Wind Precip. Elev Updated Type